地図

経路データ

SID SEASON NUMBER BASIN SUBBASIN NAME ISO_TIME NATURE LAT LON WMO_WIND WMO_PRES WMO_AGENCY TRACK_TYPE DIST2LAND LANDFALL IFLAG USA_AGENCY USA_ATCF_ID USA_LAT USA_LON USA_RECORD USA_STATUS USA_WIND USA_PRES USA_SSHS USA_R34_NE USA_R34_SE USA_R34_SW USA_R34_NW USA_R50_NE USA_R50_SE USA_R50_SW USA_R50_NW USA_R64_NE USA_R64_SE USA_R64_SW USA_R64_NW USA_POCI USA_ROCI USA_RMW USA_EYE TOKYO_LAT TOKYO_LON TOKYO_GRADE TOKYO_WIND TOKYO_PRES TOKYO_R50_DIR TOKYO_R50_LONG TOKYO_R50_SHORT TOKYO_R30_DIR TOKYO_R30_LONG TOKYO_R30_SHORT TOKYO_LAND CMA_LAT CMA_LON CMA_CAT CMA_WIND CMA_PRES HKO_LAT HKO_LON HKO_CAT HKO_WIND HKO_PRES NEWDELHI_LAT NEWDELHI_LON NEWDELHI_GRADE NEWDELHI_WIND NEWDELHI_PRES NEWDELHI_CI NEWDELHI_DP NEWDELHI_POCI REUNION_LAT REUNION_LON REUNION_TYPE REUNION_WIND REUNION_PRES REUNION_TNUM REUNION_CI REUNION_RMW REUNION_R34_NE REUNION_R34_SE REUNION_R34_SW REUNION_R34_NW REUNION_R50_NE REUNION_R50_SE REUNION_R50_SW REUNION_R50_NW REUNION_R64_NE REUNION_R64_SE REUNION_R64_SW REUNION_R64_NW BOM_LAT BOM_LON BOM_TYPE BOM_WIND BOM_PRES BOM_TNUM BOM_CI BOM_RMW BOM_R34_NE BOM_R34_SE BOM_R34_SW BOM_R34_NW BOM_R50_NE BOM_R50_SE BOM_R50_SW BOM_R50_NW BOM_R64_NE BOM_R64_SE BOM_R64_SW BOM_R64_NW BOM_ROCI BOM_POCI BOM_EYE BOM_POS_METHOD BOM_PRES_METHOD NADI_LAT NADI_LON NADI_CAT NADI_WIND NADI_PRES WELLINGTON_LAT WELLINGTON_LON WELLINGTON_WIND WELLINGTON_PRES DS824_LAT DS824_LON DS824_STAGE DS824_WIND DS824_PRES TD9636_LAT TD9636_LON TD9636_STAGE TD9636_WIND TD9636_PRES TD9635_LAT TD9635_LON TD9635_WIND TD9635_PRES TD9635_ROCI NEUMANN_LAT NEUMANN_LON NEUMANN_CLASS NEUMANN_WIND NEUMANN_PRES MLC_LAT MLC_LON MLC_CLASS MLC_WIND MLC_PRES USA_GUST BOM_GUST BOM_GUST_PER REUNION_GUST REUNION_GUST_PER USA_SEAHGT USA_SEARAD_NE USA_SEARAD_SE USA_SEARAD_SW USA_SEARAD_NW STORM_SPEED STORM_DIR
1924279N20135 1924 41 WP MM NOT_NAMED 1924-10-05 10:00:00 NR 19.5000 134.500 main 1244 1151 __________O___ -1 19.5000 134.500 7 38 289
1924279N20135 1924 41 WP MM NOT_NAMED 1924-10-05 12:00:00 NR 19.9076 133.242 main 1151 992 __________P___ -1 19.9076 133.242 7 36 289
1924279N20135 1924 41 WP MM NOT_NAMED 1924-10-05 15:00:00 NR 20.5001 131.456 main 992 856 __________P___ -1 20.5001 131.456 7 33 291
1924279N20135 1924 41 WP MM NOT_NAMED 1924-10-05 18:00:00 NR 21.0691 129.951 main 860 776 __________P___ -1 21.0691 129.951 7 26 295
1924279N20135 1924 41 WP MM NOT_NAMED 1924-10-05 21:00:00 NR 21.6195 128.912 main 776 757 __________P___ -1 21.6195 128.912 7 21 302
1924279N20135 1924 41 WP MM NOT_NAMED 1924-10-05 22:00:00 NR 21.8000 128.700 main 757 720 __________O___ -1 21.8000 128.700 3 13 325
1924279N20135 1924 41 WP MM NOT_NAMED 1924-10-06 00:00:00 NR 22.1583 128.499 main 720 708 __________P___ -1 22.1583 128.499 3 11 357
1924279N20135 1924 41 WP MM NOT_NAMED 1924-10-06 03:00:00 NR 22.6901 128.645 main 711 717 __________P___ -1 22.6901 128.645 3 12 29
1924279N20135 1924 41 WP MM NOT_NAMED 1924-10-06 06:00:00 NR 23.2145 129.127 main 746 753 __________P___ -1 23.2145 129.127 3 14 43
1924279N20135 1924 41 WP MM NOT_NAMED 1924-10-06 09:00:00 NR 23.7301 129.718 main 792 796 __________P___ -1 23.7301 129.718 3 15 46
1924279N20135 1924 41 WP MM NOT_NAMED 1924-10-06 10:00:00 NR 23.9000 129.900 main 796 750 __________O___ -1 23.9000 129.900 4 13 35
1924279N20135 1924 41 WP MM NOT_NAMED 1924-10-06 12:00:00 NR 24.2574 130.114 main 750 692 __________P___ -1 24.2574 130.114 4 12 28
1924279N20135 1924 41 WP MM NOT_NAMED 1924-10-06 15:00:00 NR 24.7877 130.424 main 692 636 __________P___ -1 24.7877 130.424 4 12 27
1924279N20135 1924 41 WP MM NOT_NAMED 1924-10-06 18:00:00 NR 25.2942 130.687 main 636 580 __________P___ -1 25.2942 130.687 4 11 22
1924279N20135 1924 41 WP MM NOT_NAMED 1924-10-06 21:00:00 NR 25.7580 130.866 main 580 569 __________P___ -1 25.7580 130.866 4 10 18
1924279N20135 1924 41 WP MM NOT_NAMED 1924-10-06 22:00:00 NR 25.9000 130.900 main 569 536 __________O___ -1 25.9000 130.900 4 8 10
1924279N20135 1924 41 WP MM NOT_NAMED 1924-10-07 00:00:00 NR 26.1667 130.935 main 536 502 __________P___ -1 26.1667 130.935 4 8 0
1924279N20135 1924 41 WP MM NOT_NAMED 1924-10-07 03:00:00 NR 26.5232 130.899 main 502 468 __________P___ -1 26.5232 130.899 4 7 348
1924279N20135 1924 41 WP MM NOT_NAMED 1924-10-07 06:00:00 NR 26.8357 130.773 main 468 435 __________P___ -1 26.8357 130.773 4 7 334
1924279N20135 1924 41 WP MM NOT_NAMED 1924-10-07 09:00:00 NR 27.1135 130.578 main 435 424 __________P___ -1 27.1135 130.578 4 7 326
1924279N20135 1924 41 WP MM NOT_NAMED 1924-10-07 10:00:00 NR 27.2000 130.500 main 424 403 __________O___ -1 27.2000 130.500 4 7 319
1924279N20135 1924 41 WP MM NOT_NAMED 1924-10-07 12:00:00 NR 27.3657 130.331 main 403 383 __________P___ -1 27.3657 130.331 4 7 315
1924279N20135 1924 41 WP MM NOT_NAMED 1924-10-07 15:00:00 NR 27.5989 130.047 main 385 367 __________P___ -1 27.5989 130.047 4 7 311
1924279N20135 1924 41 WP MM NOT_NAMED 1924-10-07 18:00:00 NR 27.8187 129.736 main 370 354 __________P___ -1 27.8187 129.736 4 7 307
1924279N20135 1924 41 WP MM NOT_NAMED 1924-10-07 21:00:00 NR 28.0303 129.410 main 357 347 __________P___ -1 28.0303 129.410 4 7 306
1924279N20135 1924 41 WP MM NOT_NAMED 1924-10-07 22:00:00 NR 28.1000 129.300 main 350 __________O___ -1 28.1000 129.300 4 7 306

デジタル台風データ・検索

IBTrACS Databaseについて

本データベースは、米国NOAAが公開する1842年以降の世界の熱帯低気圧のベストトラックデータアーカイブInternational Best Track Archive for Climate Stewardship (IBTrACS)を、ウェブで閲覧しやすい形式に変換したものです。

最終更新日:2021-12-08